Time;durP1;ratioP1;P1;durP2;ratioP2;P2;SDS_P1;SDS_P2;PMS_P1;PMS_P2;Temp;Humidity;BMP_temperature;BMP_pressure;BME280_temperature;BME280_humidity;BME280_pressure;Samples;Min_cycle;Max_cycle;Signal;HPM_P1;HPM_P2
2022/07/16 00:01:22;;;;;;;2.90;1.73;;;17.70;99.90;;;;;;4849765;29;20055;-79
2022/07/16 00:03:50;;;;;;;1.95;1.50;;;17.60;99.90;;;;;;4879997;29;20045;-78
2022/07/16 00:06:16;;;;;;;3.45;1.90;;;17.60;99.90;;;;;;4864839;29;20077;-79
2022/07/16 00:08:41;;;;;;;3.75;1.85;;;17.50;99.90;;;;;;4880809;29;20083;-78
2022/07/16 00:11:07;;;;;;;4.53;2.17;;;17.50;99.90;;;;;;4865608;29;20072;-79
2022/07/16 00:13:33;;;;;;;2.30;1.73;;;17.50;99.90;;;;;;4865879;29;20400;-78
2022/07/16 00:15:59;;;;;;;3.40;2.03;;;17.40;99.90;;;;;;4835055;29;20165;-78
2022/07/16 00:21:08;;;;;;;3.88;1.80;;;17.40;99.90;;;;;;4881044;29;20080;-79
2022/07/16 00:23:34;;;;;;;2.67;1.60;;;17.40;99.90;;;;;;4834886;29;20510;-78
2022/07/16 00:26:00;;;;;;;2.38;1.63;;;17.40;99.90;;;;;;4834196;29;20085;-80
2022/07/16 00:28:25;;;;;;;3.22;1.60;;;17.40;99.90;;;;;;4864720;29;20394;-78
2022/07/16 00:30:51;;;;;;;4.25;1.95;;;17.30;99.90;;;;;;4865355;29;20041;-79
2022/07/16 00:33:17;;;;;;;2.45;1.70;;;17.30;99.90;;;;;;4834839;29;20450;-78
2022/07/16 00:35:42;;;;;;;2.65;1.80;;;17.30;99.90;;;;;;4881268;29;20045;-79
2022/07/16 00:38:08;;;;;;;3.80;2.10;;;17.30;99.90;;;;;;4850964;29;20052;-78
2022/07/16 00:40:35;;;;;;;2.58;1.80;;;17.30;99.90;;;;;;4865872;29;20076;-80
2022/07/16 00:43:01;;;;;;;2.78;2.00;;;17.20;99.90;;;;;;4880765;29;20048;-79
2022/07/16 00:45:27;;;;;;;3.65;1.92;;;17.20;99.90;;;;;;4864371;29;20057;-78
2022/07/16 00:47:53;;;;;;;3.38;1.95;;;17.20;99.90;;;;;;4879935;29;20082;-78
2022/07/16 00:50:19;;;;;;;2.53;1.85;;;17.20;99.90;;;;;;4865577;29;20372;-79
2022/07/16 00:52:45;;;;;;;2.40;1.88;;;17.20;99.90;;;;;;4849627;29;20560;-79
2022/07/16 00:55:11;;;;;;;3.92;1.95;;;17.20;99.90;;;;;;4865391;29;20128;-78
2022/07/16 00:57:36;;;;;;;2.42;1.83;;;17.10;99.90;;;;;;4865547;29;20065;-79
2022/07/16 01:00:05;;;;;;;3.83;2.40;;;17.10;99.90;;;;;;4865202;29;20494;-79
2022/07/16 01:02:31;;;;;;;3.58;2.03;;;17.10;99.90;;;;;;4865125;29;20059;-77
2022/07/16 01:04:57;;;;;;;4.85;2.10;;;17.10;99.90;;;;;;4864887;29;20402;-78
2022/07/16 01:07:23;;;;;;;4.80;2.15;;;17.10;99.90;;;;;;4864585;29;20081;-79
2022/07/16 01:09:50;;;;;;;4.53;2.08;;;17.10;99.90;;;;;;4848384;29;20076;-78
2022/07/16 01:12:17;;;;;;;4.70;2.08;;;17.10;99.90;;;;;;4865759;29;20447;-79
2022/07/16 01:14:43;;;;;;;2.60;1.75;;;17.10;99.90;;;;;;4864732;29;20494;-77
2022/07/16 01:17:09;;;;;;;3.63;2.05;;;17.10;99.90;;;;;;4849214;29;20044;-79
2022/07/16 01:19:35;;;;;;;2.80;2.00;;;17.10;99.90;;;;;;4849670;29;20040;-79
2022/07/16 01:22:01;;;;;;;2.95;1.83;;;17.10;99.90;;;;;;4863499;29;20049;-78
2022/07/16 01:24:27;;;;;;;2.45;1.92;;;17.00;99.90;;;;;;4863466;29;20052;-78
2022/07/16 01:26:53;;;;;;;4.43;2.40;;;17.10;99.90;;;;;;4847786;29;20598;-79
2022/07/16 01:29:18;;;;;;;2.67;2.00;;;17.10;99.90;;;;;;4849024;29;20090;-79
2022/07/16 01:31:44;;;;;;;3.58;1.90;;;17.10;99.90;;;;;;4864001;29;20047;-77
2022/07/16 01:34:25;;;;;;;4.13;2.10;;;17.10;99.90;;;;;;4848884;29;20072;-77
2022/07/16 01:37:03;;;;;;;4.32;2.20;;;17.10;99.90;;;;;;4851122;29;20059;-78
2022/07/16 01:39:30;;;;;;;4.15;1.92;;;17.20;99.90;;;;;;4850326;29;20049;-78
2022/07/16 01:41:58;;;;;;;6.55;2.65;;;17.20;99.90;;;;;;4864369;29;20045;-78
2022/07/16 01:44:25;;;;;;;5.40;2.03;;;17.20;99.90;;;;;;4878743;29;20063;-78
2022/07/16 01:46:52;;;;;;;3.90;1.95;;;17.20;99.90;;;;;;4848640;29;20049;-78
2022/07/16 01:49:17;;;;;;;4.75;2.00;;;17.30;99.90;;;;;;4880085;29;20047;-78
2022/07/16 01:51:43;;;;;;;5.30;2.15;;;17.30;99.90;;;;;;4864165;29;20565;-79
2022/07/16 01:54:09;;;;;;;8.00;2.10;;;17.30;99.90;;;;;;4864094;29;20065;-78
2022/07/16 01:56:35;;;;;;;4.72;2.30;;;17.30;99.90;;;;;;4863677;29;20049;-79
2022/07/16 01:59:01;;;;;;;5.65;2.60;;;17.30;99.90;;;;;;4862589;29;20060;-77
2022/07/16 02:01:26;;;;;;;5.88;2.50;;;17.30;99.90;;;;;;4878755;29;20479;-78
2022/07/16 02:03:52;;;;;;;3.38;2.10;;;17.40;99.90;;;;;;4879513;29;20104;-78
2022/07/16 02:06:18;;;;;;;4.40;2.38;;;17.30;99.90;;;;;;4878829;29;20154;-77
2022/07/16 02:08:43;;;;;;;6.00;2.80;;;17.30;99.90;;;;;;4863301;29;20044;-78
2022/07/16 02:11:09;;;;;;;7.63;2.58;;;17.30;99.90;;;;;;4862826;29;20048;-78
2022/07/16 02:13:35;;;;;;;6.63;2.60;;;17.20;99.90;;;;;;4863211;29;20045;-79
2022/07/16 02:16:01;;;;;;;5.38;3.00;;;17.30;99.90;;;;;;4847798;29;20057;-79
2022/07/16 02:18:27;;;;;;;2.85;1.85;;;17.20;99.90;;;;;;4863140;29;20049;-79
2022/07/16 02:20:53;;;;;;;2.10;1.67;;;17.10;99.90;;;;;;4848181;29;20084;-80
2022/07/16 02:23:18;;;;;;;2.90;1.58;;;17.00;99.90;;;;;;4863197;29;20048;-78
2022/07/16 02:25:44;;;;;;;4.82;1.80;;;17.00;99.90;;;;;;4878518;29;20045;-79
2022/07/16 02:28:10;;;;;;;4.47;1.80;;;17.00;99.90;;;;;;4878843;29;20101;-79
2022/07/16 02:30:42;;;;;;;4.15;1.70;;;17.00;99.90;;;;;;4878676;29;20124;-78
2022/07/16 02:33:09;;;;;;;3.35;1.50;;;16.90;99.90;;;;;;4878358;29;20185;-78
2022/07/16 02:35:36;;;;;;;5.00;1.80;;;16.90;99.90;;;;;;4847611;29;20128;-78
2022/07/16 02:38:04;;;;;;;3.22;1.73;;;16.80;99.90;;;;;;4862519;29;20052;-78
2022/07/16 02:40:32;;;;;;;6.47;1.90;;;16.80;99.90;;;;;;4863090;29;20534;-79
2022/07/16 02:42:58;;;;;;;3.25;1.42;;;16.80;99.90;;;;;;4863896;29;20081;-77
2022/07/16 02:45:24;;;;;;;4.32;1.40;;;16.80;99.90;;;;;;4878587;29;20065;-78
2022/07/16 02:47:50;;;;;;;6.55;1.73;;;16.80;99.90;;;;;;4848059;29;20060;-78
2022/07/16 02:50:16;;;;;;;4.50;1.60;;;16.70;99.90;;;;;;4832509;29;20037;-78
2022/07/16 02:52:42;;;;;;;5.43;1.75;;;16.70;99.90;;;;;;4877733;29;20053;-79
2022/07/16 02:55:08;;;;;;;5.00;1.40;;;16.60;99.90;;;;;;4846637;29;20037;-78
2022/07/16 02:57:34;;;;;;;4.28;1.40;;;16.60;99.90;;;;;;4861953;29;20053;-78
2022/07/16 02:59:59;;;;;;;3.40;1.52;;;16.60;99.90;;;;;;4862401;29;20109;-78
2022/07/16 03:02:25;;;;;;;3.67;1.33;;;16.60;99.90;;;;;;4832447;29;20072;-79
2022/07/16 03:04:51;;;;;;;3.72;1.58;;;16.50;99.90;;;;;;4862377;29;20132;-77
2022/07/16 03:07:17;;;;;;;5.60;1.50;;;16.50;99.90;;;;;;4878498;29;20045;-78
2022/07/16 03:09:42;;;;;;;5.18;1.50;;;16.50;99.90;;;;;;4864214;29;20052;-78
2022/07/16 03:12:08;;;;;;;6.28;2.00;;;16.50;99.90;;;;;;4832530;29;20070;-79
2022/07/16 03:14:34;;;;;;;4.05;1.52;;;16.50;99.90;;;;;;4862814;29;20045;-78
2022/07/16 03:17:00;;;;;;;4.78;1.83;;;16.40;99.90;;;;;;4832461;29;20102;-78
2022/07/16 03:19:25;;;;;;;3.58;1.33;;;16.40;99.90;;;;;;4864252;29;20060;-79
2022/07/16 03:21:51;;;;;;;3.50;1.55;;;16.40;99.90;;;;;;4863790;29;20044;-77
2022/07/16 03:24:17;;;;;;;5.55;1.52;;;16.40;99.90;;;;;;4866488;29;20051;-78
2022/07/16 03:26:42;;;;;;;4.53;1.83;;;16.40;99.90;;;;;;4867175;29;20044;-77
2022/07/16 03:29:08;;;;;;;4.07;1.60;;;16.40;99.90;;;;;;4836991;29;20394;-78
2022/07/16 03:31:34;;;;;;;5.78;1.70;;;16.40;99.90;;;;;;4850925;29;20047;-77
2022/07/16 03:33:59;;;;;;;6.97;1.77;;;16.30;99.90;;;;;;4867114;29;20049;-78
2022/07/16 03:36:26;;;;;;;4.85;1.50;;;16.30;99.90;;;;;;4866798;29;20049;-79
2022/07/16 03:39:03;;;;;;;4.88;1.60;;;16.30;99.90;;;;;;4866260;29;20080;-79
2022/07/16 03:41:29;;;;;;;3.10;1.48;;;16.30;99.90;;;;;;4867612;29;20049;-79
2022/07/16 03:43:55;;;;;;;4.70;1.95;;;16.30;99.90;;;;;;4865947;29;20061;-78
2022/07/16 03:46:20;;;;;;;2.90;1.38;;;16.30;99.90;;;;;;4850831;29;20443;-79
2022/07/16 03:48:46;;;;;;;3.35;1.30;;;16.30;99.90;;;;;;4865998;29;20410;-77
2022/07/16 03:51:12;;;;;;;2.30;1.40;;;16.30;99.90;;;;;;4865597;29;20092;-78
2022/07/16 03:53:38;;;;;;;2.35;1.38;;;16.30;99.90;;;;;;4866565;29;20043;-79
2022/07/16 03:56:05;;;;;;;5.40;1.48;;;16.30;99.90;;;;;;4865521;29;20100;-78
2022/07/16 03:58:30;;;;;;;2.50;1.50;;;16.30;99.90;;;;;;4850213;29;20041;-78
2022/07/16 04:00:56;;;;;;;4.95;1.50;;;16.30;99.90;;;;;;4849683;29;20165;-79
2022/07/16 04:03:23;;;;;;;3.60;1.50;;;16.30;99.90;;;;;;4881233;29;20117;-78
2022/07/16 04:05:50;;;;;;;4.72;1.33;;;16.30;99.90;;;;;;4865684;29;20146;-79
2022/07/16 04:08:16;;;;;;;5.55;1.48;;;16.30;99.90;;;;;;4866410;29;20041;-78
2022/07/16 04:10:42;;;;;;;6.47;1.60;;;16.30;99.90;;;;;;4868607;29;20076;-79
2022/07/16 04:13:08;;;;;;;4.70;2.00;;;16.20;99.90;;;;;;4866133;29;20037;-78
2022/07/16 04:15:33;;;;;;;4.05;1.52;;;16.20;99.90;;;;;;4881205;29;20059;-78
2022/07/16 04:17:59;;;;;;;4.20;1.30;;;16.20;99.90;;;;;;4849608;29;20075;-78
2022/07/16 04:20:24;;;;;;;5.13;1.70;;;16.10;99.90;;;;;;4864995;29;20037;-79
2022/07/16 04:22:50;;;;;;;3.10;1.48;;;16.10;99.90;;;;;;4864859;29;20049;-78
2022/07/16 04:25:16;;;;;;;3.85;1.80;;;16.10;99.90;;;;;;4849342;29;20102;-78
2022/07/16 04:27:43;;;;;;;5.35;1.45;;;16.10;99.90;;;;;;4864344;29;20041;-78
2022/07/16 04:30:10;;;;;;;4.72;1.80;;;16.10;99.90;;;;;;4865523;29;20410;-77
2022/07/16 04:32:37;;;;;;;3.75;1.40;;;16.10;99.90;;;;;;4880926;29;20045;-78
2022/07/16 04:35:03;;;;;;;6.32;1.70;;;16.00;99.90;;;;;;4864373;29;20037;-78
2022/07/16 04:37:29;;;;;;;5.13;1.95;;;16.00;99.90;;;;;;4865034;29;20051;-79
2022/07/16 04:39:55;;;;;;;7.85;1.83;;;16.00;99.90;;;;;;4864786;29;20045;-78
2022/07/16 04:42:21;;;;;;;7.05;2.08;;;15.90;99.90;;;;;;4849606;29;20037;-78
2022/07/16 04:44:46;;;;;;;4.50;1.65;;;15.90;99.90;;;;;;4864004;29;20097;-78
2022/07/16 04:47:12;;;;;;;10.10;1.77;;;15.90;99.90;;;;;;4833734;29;20064;-78
2022/07/16 04:49:38;;;;;;;8.02;2.05;;;15.90;99.90;;;;;;4864839;29;20044;-78
2022/07/16 04:52:05;;;;;;;4.70;1.70;;;15.90;99.90;;;;;;4849071;29;20053;-78
2022/07/16 04:54:31;;;;;;;4.43;1.58;;;15.90;99.90;;;;;;4879007;29;20049;-79
2022/07/16 04:56:57;;;;;;;6.68;1.70;;;15.90;99.90;;;;;;4879955;29;20064;-79
2022/07/16 04:59:23;;;;;;;7.35;2.00;;;15.90;99.90;;;;;;4834118;29;20071;-78
2022/07/16 05:01:48;;;;;;;4.85;1.83;;;15.90;99.90;;;;;;4865703;29;20107;-78
2022/07/16 05:04:14;;;;;;;2.65;1.50;;;15.90;99.90;;;;;;4865500;29;20104;-78
2022/07/16 05:06:40;;;;;;;4.90;1.77;;;15.90;99.90;;;;;;4850278;29;20414;-77
2022/07/16 05:09:05;;;;;;;7.13;1.83;;;15.90;99.90;;;;;;4834876;29;20040;-77
2022/07/16 05:11:31;;;;;;;7.10;1.80;;;15.90;99.90;;;;;;4865234;29;20454;-79
2022/07/16 05:13:57;;;;;;;7.80;2.03;;;15.90;99.90;;;;;;4850037;29;20052;-77
2022/07/16 05:16:23;;;;;;;6.30;1.50;;;15.90;99.90;;;;;;4834959;29;20048;-77
2022/07/16 05:18:50;;;;;;;7.15;2.05;;;15.90;99.90;;;;;;4864928;29;20144;-78
2022/07/16 05:21:15;;;;;;;6.38;1.80;;;15.90;99.90;;;;;;4864813;29;20045;-77
2022/07/16 05:23:41;;;;;;;3.78;1.60;;;15.90;99.90;;;;;;4849222;29;20096;-78
2022/07/16 05:26:07;;;;;;;3.28;1.50;;;16.00;99.90;;;;;;4864337;29;20093;-78
2022/07/16 05:28:33;;;;;;;5.53;2.03;;;16.00;99.90;;;;;;4849387;29;20033;-78
2022/07/16 05:30:58;;;;;;;5.30;2.08;;;16.00;99.90;;;;;;4848327;29;20104;-79
2022/07/16 05:33:25;;;;;;;6.18;1.50;;;16.00;99.90;;;;;;4864173;29;20045;-77
2022/07/16 05:35:51;;;;;;;6.00;2.03;;;16.00;99.90;;;;;;4864232;29;20048;-78
2022/07/16 05:38:17;;;;;;;7.78;2.00;;;16.00;99.90;;;;;;4863523;29;20097;-77
2022/07/16 05:40:43;;;;;;;4.57;1.60;;;16.00;99.90;;;;;;4863657;29;20044;-77
2022/07/16 05:43:09;;;;;;;7.30;1.70;;;16.10;99.90;;;;;;4880299;29;20137;-77
2022/07/16 05:45:35;;;;;;;8.95;1.65;;;16.10;99.90;;;;;;4879369;29;20105;-79
2022/07/16 05:48:01;;;;;;;6.35;1.63;;;16.10;99.90;;;;;;4863960;29;20089;-78
2022/07/16 05:50:26;;;;;;;3.42;1.38;;;16.20;99.90;;;;;;4863598;29;20041;-78
2022/07/16 05:52:52;;;;;;;7.13;1.63;;;16.10;99.90;;;;;;4848406;29;20037;-77
2022/07/16 05:55:18;;;;;;;5.03;1.38;;;16.20;99.90;;;;;;4848385;29;20048;-78
2022/07/16 05:57:44;;;;;;;6.40;1.60;;;16.20;99.90;;;;;;4832946;29;20148;-78
2022/07/16 06:00:11;;;;;;;6.07;1.70;;;16.20;99.90;;;;;;4863247;29;20060;-77
2022/07/16 06:02:38;;;;;;;5.10;1.35;;;16.20;99.90;;;;;;4863666;29;20041;-79
2022/07/16 06:05:04;;;;;;;6.00;1.60;;;16.20;99.90;;;;;;4879159;29;20049;-78
2022/07/16 06:07:29;;;;;;;4.30;1.38;;;16.20;99.90;;;;;;4847991;29;20259;-78
2022/07/16 06:09:55;;;;;;;6.45;1.38;;;16.30;99.90;;;;;;4848432;29;20041;-78
2022/07/16 06:12:21;;;;;;;6.47;1.45;;;16.30;99.90;;;;;;4863270;29;20134;-78
2022/07/16 06:14:46;;;;;;;4.05;1.10;;;16.30;99.90;;;;;;4863104;29;20109;-79
2022/07/16 06:17:13;;;;;;;6.65;1.50;;;16.40;99.90;;;;;;4833356;29;20091;-79
2022/07/16 06:19:43;;;;;;;5.93;1.92;;;16.40;99.90;;;;;;4848094;29;20049;-79
2022/07/16 06:22:10;;;;;;;9.32;1.40;;;16.40;99.90;;;;;;4848394;29;20118;-77
2022/07/16 06:24:35;;;;;;;7.35;1.50;;;16.50;99.90;;;;;;4879174;29;20562;-78
2022/07/16 06:27:01;;;;;;;11.85;1.45;;;16.50;99.90;;;;;;4863479;29;20045;-78
2022/07/16 06:29:27;;;;;;;6.30;1.48;;;16.50;99.90;;;;;;4863254;29;20041;-78
2022/07/16 06:31:53;;;;;;;5.40;1.73;;;16.60;99.90;;;;;;4878285;29;20041;-78
2022/07/16 06:34:18;;;;;;;7.70;1.30;;;16.60;99.90;;;;;;4847248;29;20045;-78
2022/07/16 06:36:44;;;;;;;7.00;1.40;;;16.60;99.90;;;;;;4847664;29;20052;-79
2022/07/16 06:39:10;;;;;;;6.80;1.40;;;16.70;99.90;;;;;;4848196;29;20383;-79
2022/07/16 06:41:37;;;;;;;4.40;1.25;;;16.70;99.90;;;;;;4848218;29;20505;-77
2022/07/16 06:44:04;;;;;;;10.95;1.55;;;16.90;99.90;;;;;;4862536;29;20067;-78
2022/07/16 06:46:29;;;;;;;6.05;1.02;;;17.10;99.90;;;;;;4863292;29;20053;-78
2022/07/16 06:48:55;;;;;;;4.10;1.17;;;17.20;99.90;;;;;;4862563;29;20380;-79
2022/07/16 06:51:21;;;;;;;7.82;1.55;;;17.30;99.90;;;;;;4878000;29;20045;-79
2022/07/16 06:53:47;;;;;;;8.40;1.25;;;17.40;99.90;;;;;;4877530;29;20367;-78
2022/07/16 06:56:12;;;;;;;6.15;1.20;;;17.60;99.90;;;;;;4846713;29;20379;-78
2022/07/16 06:58:38;;;;;;;4.78;1.10;;;17.80;99.90;;;;;;4880374;29;20041;-78
2022/07/16 07:01:04;;;;;;;3.60;1.23;;;17.90;99.90;;;;;;4850721;29;20040;-78
2022/07/16 07:03:29;;;;;;;9.05;1.60;;;17.90;99.90;;;;;;4867024;29;20049;-78
2022/07/16 07:05:55;;;;;;;5.72;1.33;;;17.90;99.90;;;;;;4836294;29;20041;-78
2022/07/16 07:08:21;;;;;;;5.68;1.10;;;18.00;99.90;;;;;;4867576;29;20079;-78
2022/07/16 07:10:47;;;;;;;4.65;1.10;;;18.00;99.90;;;;;;4851236;29;20041;-79
2022/07/16 07:13:12;;;;;;;5.93;1.60;;;18.10;99.90;;;;;;4882194;29;20041;-78
2022/07/16 07:15:38;;;;;;;6.28;1.10;;;18.30;99.90;;;;;;4866521;29;20037;-80
2022/07/16 07:18:04;;;;;;;4.47;1.23;;;18.40;99.90;;;;;;4835497;29;20184;-78
2022/07/16 07:20:29;;;;;;;6.20;1.65;;;18.70;99.90;;;;;;4866610;29;20045;-79
2022/07/16 07:22:55;;;;;;;5.25;1.10;;;18.70;99.90;;;;;;4881634;29;20048;-79
2022/07/16 07:25:21;;;;;;;8.73;1.90;;;18.70;99.90;;;;;;4866491;29;20065;-78
2022/07/16 07:27:47;;;;;;;8.32;1.75;;;18.50;99.90;;;;;;4881744;29;20072;-78
2022/07/16 07:30:13;;;;;;;8.70;1.38;;;18.40;99.90;;;;;;4850843;29;20482;-78
2022/07/16 07:32:39;;;;;;;4.80;1.15;;;18.20;99.90;;;;;;4881291;29;20477;-79
2022/07/16 07:35:06;;;;;;;7.30;1.70;;;18.00;99.90;;;;;;4866180;29;20096;-78
2022/07/16 07:37:32;;;;;;;5.07;1.20;;;17.90;99.90;;;;;;4881646;29;20041;-78
2022/07/16 07:39:57;;;;;;;5.50;1.25;;;17.80;99.90;;;;;;4865847;29;20138;-79
2022/07/16 07:42:23;;;;;;;7.18;1.52;;;17.70;99.90;;;;;;4850475;29;20052;-79
2022/07/16 07:44:49;;;;;;;6.90;1.33;;;17.50;99.90;;;;;;4850473;29;20057;-79
2022/07/16 07:47:14;;;;;;;4.97;1.23;;;17.40;99.90;;;;;;4850273;29;20078;-78
2022/07/16 07:49:40;;;;;;;7.05;1.40;;;17.40;99.90;;;;;;4865959;29;20496;-79
2022/07/16 07:52:08;;;;;;;8.43;1.48;;;17.30;99.90;;;;;;4865590;29;20494;-77
2022/07/16 07:54:34;;;;;;;6.57;1.50;;;17.20;99.90;;;;;;4881549;29;20041;-79
2022/07/16 07:57:00;;;;;;;7.45;1.40;;;17.20;99.90;;;;;;4849954;29;20051;-78
2022/07/16 07:59:26;;;;;;;11.18;1.50;;;17.20;99.90;;;;;;4880262;29;20053;-78
2022/07/16 08:01:52;;;;;;;4.55;1.30;;;17.20;99.90;;;;;;4849708;29;20049;-78
2022/07/16 08:04:18;;;;;;;7.45;1.13;;;17.30;99.90;;;;;;4850236;29;20084;-78
2022/07/16 08:06:44;;;;;;;7.60;1.45;;;17.40;99.90;;;;;;4864620;29;20136;-79
2022/07/16 08:09:09;;;;;;;6.82;1.35;;;17.50;99.90;;;;;;4879551;29;20045;-79
2022/07/16 08:11:35;;;;;;;4.28;1.27;;;17.70;99.90;;;;;;4865666;29;20486;-79
2022/07/16 08:14:01;;;;;;;9.73;1.40;;;18.10;99.90;;;;;;4835514;29;20045;-79
2022/07/16 08:16:26;;;;;;;7.03;1.65;;;18.40;99.90;;;;;;4881280;29;20045;-77
2022/07/16 08:18:52;;;;;;;6.45;0.93;;;18.60;99.90;;;;;;4834144;29;20386;-81
2022/07/16 08:21:18;;;;;;;7.05;1.40;;;18.60;99.90;;;;;;4864273;29;20048;-78
2022/07/16 08:26:28;;;;;;;25.20;1.90;;;18.70;99.90;;;;;;4855159;29;20053;-79
2022/07/16 08:28:54;;;;;;;5.20;1.13;;;18.70;99.80;;;;;;4835901;29;20391;-79
2022/07/16 08:31:20;;;;;;;5.32;1.05;;;18.60;99.30;;;;;;4864252;29;20041;-79
2022/07/16 08:33:45;;;;;;;7.07;1.15;;;18.60;98.70;;;;;;4864271;29;20048;-78
2022/07/16 08:36:11;;;;;;;13.15;1.45;;;18.90;98.70;;;;;;4879281;29;20049;-79
2022/07/16 08:38:37;;;;;;;4.80;1.45;;;19.20;98.20;;;;;;4864604;29;20045;-78
2022/07/16 08:41:03;;;;;;;4.13;1.25;;;19.30;96.10;;;;;;4834974;29;20041;-78
2022/07/16 08:43:33;;;;;;;3.53;1.08;;;19.20;95.40;;;;;;4865246;29;20528;-79
2022/07/16 08:45:59;;;;;;;7.55;1.23;;;19.00;94.00;;;;;;4849046;29;20183;-78
2022/07/16 08:48:25;;;;;;;3.22;0.90;;;18.90;94.50;;;;;;4849996;29;20052;-77
2022/07/16 08:50:53;;;;;;;5.20;1.23;;;19.00;94.00;;;;;;4850729;29;20037;-78
2022/07/16 08:53:22;;;;;;;8.57;1.25;;;19.20;94.00;;;;;;4865892;29;20168;-77
2022/07/16 08:55:52;;;;;;;3.42;0.77;;;19.60;94.30;;;;;;4881068;29;20067;-78
2022/07/16 08:58:18;;;;;;;9.10;1.60;;;20.00;92.90;;;;;;4866535;29;20101;-78
2022/07/16 09:00:45;;;;;;;3.80;1.10;;;20.10;92.30;;;;;;4865372;29;20041;-78
2022/07/16 09:03:14;;;;;;;8.70;1.23;;;20.20;91.30;;;;;;4849924;29;20493;-79
2022/07/16 09:05:43;;;;;;;2.75;1.00;;;20.20;91.60;;;;;;4864218;29;20080;-78
2022/07/16 09:08:09;;;;;;;4.40;1.35;;;20.30;88.30;;;;;;4865993;29;20041;-78
2022/07/16 09:10:36;;;;;;;4.32;0.73;;;20.50;88.70;;;;;;4881246;29;20134;-78
2022/07/16 09:13:02;;;;;;;4.72;1.40;;;20.60;88.20;;;;;;4834727;29;20052;-79
2022/07/16 09:15:34;;;;;;;6.22;1.20;;;20.40;89.40;;;;;;4880859;29;20501;-78
2022/07/16 09:18:07;;;;;;;7.32;1.20;;;20.30;86.50;;;;;;4880517;29;20060;-78
2022/07/16 09:20:33;;;;;;;2.92;1.15;;;20.10;88.60;;;;;;4863784;29;20093;-78
2022/07/16 09:22:58;;;;;;;14.85;1.50;;;20.10;88.60;;;;;;4864241;29;20053;-78
2022/07/16 09:25:24;;;;;;;7.10;1.52;;;20.30;88.40;;;;;;4835617;29;20053;-78
2022/07/16 09:27:57;;;;;;;8.02;1.10;;;20.50;83.70;;;;;;4849959;29;20518;-79
2022/07/16 09:30:24;;;;;;;2.05;0.80;;;20.70;82.50;;;;;;4849382;29;20100;-79
2022/07/16 09:32:50;;;;;;;3.72;1.02;;;20.80;82.80;;;;;;4865190;29;20051;-79
2022/07/16 09:35:18;;;;;;;5.10;1.00;;;21.00;79.30;;;;;;4865120;29;20397;-79
2022/07/16 09:37:54;;;;;;;5.80;1.10;;;21.10;78.80;;;;;;4865610;29;20048;-78
2022/07/16 09:40:32;;;;;;;4.97;0.90;;;21.30;77.00;;;;;;4879524;29;20522;-79
2022/07/16 09:43:02;;;;;;;2.80;1.00;;;21.40;77.90;;;;;;4863869;29;20055;-79
2022/07/16 09:45:28;;;;;;;6.85;1.17;;;21.30;76.90;;;;;;4864164;29;20105;-78
2022/07/16 09:47:54;;;;;;;12.43;1.30;;;21.10;79.50;;;;;;4848551;29;20130;-78
2022/07/16 09:50:20;;;;;;;5.80;0.90;;;20.80;78.30;;;;;;4864013;29;20036;-79
2022/07/16 09:52:46;;;;;;;9.13;0.93;;;20.80;79.60;;;;;;4863733;29;20132;-77
2022/07/16 09:55:12;;;;;;;31.23;2.40;;;20.80;81.20;;;;;;4863947;29;20128;-78
2022/07/16 09:57:40;;;;;;;8.60;1.20;;;20.90;80.90;;;;;;4848385;29;20045;-79
2022/07/16 10:00:09;;;;;;;12.50;1.60;;;21.10;79.90;;;;;;4864670;29;20048;-78
2022/07/16 10:02:34;;;;;;;5.72;1.50;;;21.10;79.50;;;;;;4864509;29;20056;-79
2022/07/16 10:05:01;;;;;;;9.07;1.30;;;21.00;79.70;;;;;;4864733;29;20052;-79
2022/07/16 10:07:26;;;;;;;4.07;0.85;;;20.70;81.60;;;;;;4863372;29;20045;-79
2022/07/16 10:09:52;;;;;;;6.78;1.05;;;20.80;80.60;;;;;;4832119;29;20098;-77
2022/07/16 10:12:20;;;;;;;19.63;1.80;;;20.70;80.30;;;;;;4833275;29;20065;-78
2022/07/16 10:14:52;;;;;;;2.45;0.93;;;20.70;80.70;;;;;;4864869;29;20041;-77
2022/07/16 10:17:21;;;;;;;5.72;1.20;;;20.70;82.60;;;;;;4863867;29;20128;-79
2022/07/16 10:20:05;;;;;;;5.88;1.33;;;20.80;82.10;;;;;;4863620;29;20077;-78
2022/07/16 10:22:33;;;;;;;4.30;1.05;;;20.80;82.70;;;;;;4879293;29;20057;-78
2022/07/16 10:24:59;;;;;;;3.72;1.00;;;20.70;80.10;;;;;;4879425;29;20049;-78
2022/07/16 10:27:30;;;;;;;7.20;1.00;;;20.50;80.90;;;;;;4834097;29;20041;-78
2022/07/16 10:30:12;;;;;;;5.63;1.17;;;20.40;81.00;;;;;;4864285;29;20048;-78
2022/07/16 10:33:00;;;;;;;3.83;1.00;;;20.30;81.40;;;;;;4863979;29;20132;-79
2022/07/16 10:35:31;;;;;;;9.15;1.20;;;20.40;81.30;;;;;;4867019;29;20172;-79
2022/07/16 10:38:07;;;;;;;5.15;1.10;;;20.50;81.20;;;;;;4884056;29;20076;-79
2022/07/16 10:40:36;;;;;;;25.50;2.20;;;20.70;79.40;;;;;;4882141;29;20079;-78
2022/07/16 10:43:15;;;;;;;18.50;1.73;;;20.80;80.00;;;;;;4883443;29;20049;-80
2022/07/16 10:45:54;;;;;;;17.33;1.42;;;20.80;80.30;;;;;;4867454;29;20061;-78
2022/07/16 10:48:25;;;;;;;29.67;2.33;;;20.80;80.30;;;;;;4883905;29;20072;-78
2022/07/16 10:51:09;;;;;;;5.63;1.25;;;20.80;80.10;;;;;;4867968;29;20091;-78
2022/07/16 10:53:57;;;;;;;61.75;3.88;;;20.70;79.40;;;;;;4867621;29;20045;-79
2022/07/16 10:56:50;;;;;;;7.25;1.50;;;20.70;80.40;;;;;;4867128;29;20085;-78
2022/07/16 10:59:24;;;;;;;13.52;1.27;;;20.70;78.60;;;;;;4864600;29;20068;-78
2022/07/16 11:01:53;;;;;;;3.38;1.10;;;20.70;80.50;;;;;;4882824;29;20181;-78
2022/07/16 11:04:50;;;;;;;8.30;1.92;;;20.70;78.30;;;;;;4851801;29;20045;-79
2022/07/16 11:07:19;;;;;;;4.40;1.00;;;20.70;78.80;;;;;;4881564;29;20056;-79
2022/07/16 11:09:47;;;;;;;6.70;1.15;;;20.70;76.90;;;;;;4881934;29;20053;-79
2022/07/16 11:12:18;;;;;;;5.13;1.27;;;20.70;78.20;;;;;;4881480;29;20052;-80
2022/07/16 11:14:49;;;;;;;6.93;1.33;;;20.70;79.00;;;;;;4881637;29;20041;-78
2022/07/16 11:17:17;;;;;;;16.08;1.80;;;20.70;79.90;;;;;;4882684;29;20091;-79
2022/07/16 11:19:48;;;;;;;10.05;1.20;;;20.80;80.80;;;;;;4882451;29;20083;-79
2022/07/16 11:22:22;;;;;;;5.00;1.02;;;20.90;80.90;;;;;;4882466;29;20082;-80
2022/07/16 11:24:50;;;;;;;4.72;1.30;;;20.90;79.00;;;;;;4867610;29;20136;-78
2022/07/16 11:27:16;;;;;;;4.03;1.17;;;20.90;79.20;;;;;;4866324;29;20041;-79
2022/07/16 11:29:42;;;;;;;2.92;0.77;;;20.70;80.10;;;;;;4867627;29;20067;-78
2022/07/16 11:32:15;;;;;;;8.02;1.40;;;20.70;80.80;;;;;;4852373;29;20047;-79
2022/07/16 11:34:41;;;;;;;5.18;1.42;;;20.70;82.50;;;;;;4866692;29;20052;-78
2022/07/16 11:37:07;;;;;;;3.60;1.25;;;20.80;81.80;;;;;;4852113;29;20097;-78
2022/07/16 11:39:33;;;;;;;7.35;1.38;;;20.90;82.60;;;;;;4881949;29;20486;-78
2022/07/16 11:41:59;;;;;;;7.00;1.17;;;21.20;82.20;;;;;;4881297;29;20108;-77
2022/07/16 11:44:33;;;;;;;10.45;1.30;;;21.20;82.50;;;;;;4880816;29;20104;-80
2022/07/16 11:47:02;;;;;;;8.30;1.30;;;21.40;80.90;;;;;;4864647;29;20083;-78
2022/07/16 11:49:33;;;;;;;6.57;1.30;;;21.40;81.70;;;;;;4865136;29;20041;-78
2022/07/16 11:52:02;;;;;;;4.53;1.30;;;21.30;82.00;;;;;;4881359;29;20041;-78
2022/07/16 11:54:29;;;;;;;4.85;1.50;;;21.20;82.60;;;;;;4866972;29;20122;-78
2022/07/16 11:56:56;;;;;;;5.57;1.30;;;21.30;83.30;;;;;;4851174;29;20128;-79
2022/07/16 11:59:27;;;;;;;5.82;1.50;;;21.40;83.50;;;;;;4852416;29;20049;-78
2022/07/16 12:02:04;;;;;;;12.20;1.40;;;21.40;82.40;;;;;;4866120;29;20081;-77
2022/07/16 12:04:55;;;;;;;5.57;1.20;;;21.30;83.30;;;;;;4881329;29;20077;-78
2022/07/16 12:07:23;;;;;;;3.58;1.10;;;21.30;83.90;;;;;;4880884;29;20114;-79
2022/07/16 12:09:50;;;;;;;7.10;1.60;;;21.40;83.20;;;;;;4865471;29;20486;-79
2022/07/16 12:12:22;;;;;;;7.47;1.20;;;21.40;83.30;;;;;;4850670;29;20489;-79
2022/07/16 12:15:02;;;;;;;8.07;1.35;;;21.30;82.20;;;;;;4866187;29;20041;-78
2022/07/16 12:17:33;;;;;;;4.10;1.10;;;21.20;81.50;;;;;;4865317;29;20045;-78
2022/07/16 12:20:01;;;;;;;4.90;1.05;;;21.10;81.80;;;;;;4865728;29;20049;-77
2022/07/16 12:22:47;;;;;;;4.38;1.30;;;21.00;83.00;;;;;;4865893;29;20048;-77
2022/07/16 12:25:20;;;;;;;8.15;1.50;;;21.00;83.00;;;;;;4880997;29;20041;-80
2022/07/16 12:27:49;;;;;;;3.72;1.20;;;20.90;83.00;;;;;;4880549;29;20041;-78
2022/07/16 12:30:16;;;;;;;4.75;1.00;;;21.00;84.80;;;;;;4880245;29;20108;-78
2022/07/16 12:32:50;;;;;;;7.25;1.00;;;21.20;84.70;;;;;;4849627;29;20124;-79
2022/07/16 12:36:07;;;;;;;9.57;1.25;;;21.40;83.20;;;;;;4879592;29;20041;-79
2022/07/16 12:38:45;;;;;;;4.25;1.10;;;21.90;81.60;;;;;;4809380;29;20519;-79
2022/07/16 12:41:14;;;;;;;7.72;1.42;;;22.40;81.40;;;;;;4809447;29;20056;-78
2022/07/16 12:43:41;;;;;;;7.35;1.50;;;22.70;79.90;;;;;;4856434;29;20059;-79
2022/07/16 12:46:08;;;;;;;6.88;1.40;;;23.20;79.40;;;;;;4865633;29;20068;-79
2022/07/16 12:49:08;;;;;;;7.07;1.52;;;23.40;78.60;;;;;;4864795;29;20394;-79
2022/07/16 12:51:45;;;;;;;5.15;1.33;;;23.70;74.00;;;;;;4851767;29;20077;-78
2022/07/16 12:54:13;;;;;;;3.08;1.17;;;23.80;73.40;;;;;;4863946;29;20051;-78